• Join FlightAware (Why Join?)
  • Login
  • US Flag 
10:38PM EDT


 

Airport Tracker/Info


-or-


 

Live Flight TrackerFlight Track Log ✈ UPS110 ✈ 29-Jun-2013 ✈ KSDF - PANC

Flight Track Log - Related Links

Times and Time Zones

All times are in EDT time to prevent confusion due to time zone crossing. See the UPS110 flight status page for this flight to view local times or setup timezone preferences in your user account.

Time Position Orientation Groundspeed Altitude Reporting Facility
EDT Latitude Longitude Course Direction KTS MPH feet Rate Location/Type
04:33AM 38.1620 -85.7420 North 28 32  Level FlightAware
04:34AM 38.1660 -85.7420 360° North 30 35 60 Level FlightAware
04:37AM 38.3828 -85.9688 318° Northwest  Level FlightAware Approximate
04:37AM 38.1760 -85.7480 318° Northwest 16 18  Level FlightAware
04:38AM 38.1770 -85.7480 360° North 9 10 120 Level FlightAware
04:39AM 38.1760 -85.7480 180° South 2 2 120 Level FlightAware
04:42AM 38.3683 -85.9519 318° Northwest  Level FlightAware Approximate
04:42AM 38.1750 -85.7500 318° Northwest 33 38  Level FlightAware
04:42AM 38.1780 -85.7490 15° North 45 52 900 Level FlightAware
04:43AM 38.1560 -85.7440 170° South 182 209 800 3,540 Climbing FlightAware
04:43AM 38.1310 -85.7380 169° South 194 223 2,200 2,100 Climbing FlightAware
04:44AM 38.1010 -85.7390 182° South 232 267 2,900 1,800 Climbing FlightAware
04:44AM 38.0670 -85.7420 184° South 255 293 4,000 2,520 Climbing FlightAware
04:44AM 38.0400 -85.7450 185° South 261 300 5,100 2,160 Climbing FlightAware
04:45AM 38.0130 -85.7710 217° Southwest 260 299 5,900 2,160 Climbing FlightAware
04:46AM 38.0150 -85.8320 272° West 257 296 7,700 2,460 Climbing FlightAware
04:46AM 38.0320 -85.8510 319° Northwest 264 304 8,400 2,400 Climbing FlightAware
04:46AM 38.0580 -85.8740 325° Northwest 264 304 9,500 2,040 Climbing FlightAware
04:47AM 38.1010 -85.9140 324° Northwest 286 329 10,800 1,320 Climbing FlightAware
04:48AM 38.1490 -85.9580 324° Northwest 337 388 11,400 1,200 Climbing FlightAware
04:48AM 38.2070 -86.0140 323° Northwest 382 440 12,500 2,040 Climbing FlightAware
04:49AM 38.2620 -86.0670 323° Northwest 392 451 14,200 2,760 Climbing FlightAware
04:50AM 38.3210 -86.1290 321° Northwest 402 463 16,200 2,700 Climbing FlightAware
04:51AM 38.3810 -86.1990 318° Northwest 412 474 18,000 2,460 Climbing FlightAware
04:51AM 38.4420 -86.2720 317° Northwest 422 486 19,800 2,520 Climbing FlightAware
04:52AM 38.4970 -86.3400 316° Northwest 420 483 21,600 2,460 Climbing FlightAware
04:53AM 38.5640 -86.4210 317° Northwest 425 489 23,400 2,040 Climbing FlightAware
04:53AM 38.6210 -86.4890 317° Northwest 435 501 24,600 1,740 Climbing FlightAware
04:54AM 38.6850 -86.5660 317° Northwest 446 513 25,800 1,740 Climbing FlightAware
04:55AM 38.7340 -86.6260 316° Northwest 446 513 26,900 2,580 Climbing FlightAware
04:55AM 38.8110 -86.7190 317° Northwest 425 489 29,500 2,520 Climbing FlightAware
04:56AM 38.8690 -86.7900 316° Northwest 419 482 30,800 1,740 Climbing FlightAware
04:57AM 38.9300 -86.8650 316° Northwest 418 481 32,000 1,560 Climbing FlightAware
04:58AM 38.9860 -86.9330 317° Northwest 416 479 33,000 1,200 Climbing FlightAware
04:58AM 39.0640 -87.0050 324° Northwest 422 486 33,700 660 Climbing FlightAware
04:59AM 39.1250 -87.0800 316° Northwest 432 497 34,000 180 Climbing FlightAware
05:00AM 39.1820 -87.1500 316° Northwest 435 501 34,000  Level FlightAware
05:00AM 39.2460 -87.2290 316° Northwest 432 497 34,000  Level FlightAware
05:01AM 39.3070 -87.3040 316° Northwest 432 497 34,000  Level FlightAware
05:02AM 39.3590 -87.3690 316° Northwest 431 496 34,000  Level FlightAware
05:02AM 39.4230 -87.4470 317° Northwest 430 495 34,000  Level FlightAware
05:03AM 39.4900 -87.5310 316° Northwest 429 494 34,000  Level FlightAware
05:04AM 39.5500 -87.6060 316° Northwest 428 493 34,000  Level FlightAware
05:04AM 39.6030 -87.6720 316° Northwest 427 491 34,000  Level FlightAware
05:05AM 39.6610 -87.7440 316° Northwest 425 489 34,000  Level FlightAware
05:06AM 39.7320 -87.8340 316° Northwest 425 489 34,000  Level FlightAware
05:07AM 39.7850 -87.9010 316° Northwest 425 489 34,000  Level FlightAware
05:07AM 39.8450 -87.9770 316° Northwest 423 487 34,000  Level FlightAware
05:08AM 39.9050 -88.0530 316° Northwest 422 486 34,000  Level FlightAware
05:09AM 39.9660 -88.1290 316° Northwest 421 484 34,000  Level FlightAware
05:09AM 40.0210 -88.1990 316° Northwest 422 486 34,000  Level FlightAware
05:10AM 40.0760 -88.2700 315° West 422 486 34,000  Level FlightAware
05:12AM 40.1970 -88.4250 316° Northwest 426 490 34,000  Level FlightAware
05:12AM 40.2600 -88.5060 316° Northwest 427 491 34,000  Level FlightAware
05:13AM 40.3170 -88.5790 316° Northwest 429 494 34,000  Level FlightAware
05:14AM 40.3750 -88.6550 315° West 429 494 34,000  Level FlightAware
05:14AM 40.4360 -88.7330 316° Northwest 429 494 34,000  Level FlightAware
05:15AM 40.5010 -88.8180 315° West 429 494 34,000  Level FlightAware
05:16AM 40.5570 -88.8910 315° West 430 495 34,000  Level FlightAware
05:16AM 40.6200 -88.9730 315° West 431 496 34,000  Level FlightAware
05:17AM 40.6740 -89.0440 315° West 429 494 34,000  Level FlightAware
05:18AM 40.7330 -89.1210 315° West 432 497 34,000  Level FlightAware
05:19AM 40.7950 -89.2030 315° West 432 497 34,000  Level FlightAware
05:19AM 40.8530 -89.2790 315° West 432 497 34,000  Level FlightAware
05:20AM 40.9050 -89.3480 315° West 434 499 34,000  Level FlightAware
05:21AM 40.9710 -89.4350 315° West 433 498 34,000  Level FlightAware
05:21AM 41.0340 -89.5190 315° West 432 497 34,000  Level FlightAware
05:22AM 41.0930 -89.5980 315° West 432 497 34,000  Level FlightAware
05:23AM 41.1460 -89.6700 314° West 432 497 34,000  Level FlightAware
05:23AM 41.2110 -89.7570 315° West 431 496 34,000  Level FlightAware
05:24AM 41.2690 -89.8350 315° West 432 497 34,000  Level FlightAware
05:25AM 41.3440 -89.9360 315° West 433 498 34,000  Level FlightAware
05:26AM 41.4100 -90.0250 315° West 434 499 34,000  Level FlightAware
05:26AM 41.4630 -90.0980 314° West 434 499 34,000  Level FlightAware
05:27AM 41.5240 -90.1810 314° West 434 499 34,000  Level FlightAware
05:28AM 41.5860 -90.2640 315° West 435 501 34,000  Level FlightAware
05:29AM 41.6450 -90.3460 314° West 435 501 34,000  Level FlightAware
05:29AM 41.7010 -90.4230 314° West 434 499 34,000  Level FlightAware
05:31AM 41.8133 -90.5750 314° West 433 498 34,000  Level Chicago Center
05:32AM 41.8972 -90.6958 313° West 449 517 34,000  Level Chicago Center
05:33AM 41.9822 -90.8128 314° West 444 511 34,000  Level Chicago Center
05:34AM 42.0683 -90.9314 314° West 445 512 34,000  Level Chicago Center
05:35AM 42.1531 -91.0536 313° West 449 517 34,000  Level Chicago Center
05:36AM 42.2386 -91.1736 314° West 448 516 34,000  Level Chicago Center
05:37AM 42.3244 -91.2931 314° West 447 514 34,000  Level Chicago Center
05:38AM 42.4097 -91.4150 313° West 448 516 34,000  Level Chicago Center
05:43AM 42.8670 -92.0720 313° West 443 510 34,000  Level FlightAware
05:44AM 42.9180 -92.1460 313° West 442 509 34,000  Level FlightAware
05:44AM 42.9830 -92.2420 313° West 442 509 34,000  Level FlightAware
05:45AM 43.0360 -92.3200 313° West 440 506 34,000  Level FlightAware
05:46AM 43.0910 -92.4000 313° West 440 506 34,000  Level FlightAware
05:46AM 43.1610 -92.5040 313° West 440 506 34,000  Level FlightAware
05:47AM 43.2170 -92.5870 313° West 441 507 34,000  Level FlightAware
05:48AM 43.2770 -92.6760 313° West 441 507 34,000  Level FlightAware
05:48AM 43.3330 -92.7590 313° West 441 507 34,000  Level FlightAware
05:49AM 43.3780 -92.8260 313° West 441 507 34,000  Level FlightAware
05:50AM 43.4270 -92.8990 313° West 441 507 34,000  Level FlightAware
05:51AM 43.5220 -93.0420 313° West 443 510 34,000  Level FlightAware
05:52AM 43.5970 -93.1560 312° West 443 510 34,000  Level FlightAware
05:54AM 43.8120 -93.4830 312° West 446 513 34,000  Level FlightAware
05:55AM 43.8519 -93.5456 312° West 449 517 34,000  Level Minneapolis Center
06:00AM 44.2430 -94.1600 312° West 446 513 34,000  Level FlightAware
06:01AM 44.2850 -94.2280 311° West 446 513 34,000  Level FlightAware
06:01AM 44.3420 -94.3190 311° West 446 513 34,000  Level FlightAware
06:02AM 44.3830 -94.3860 311° West 446 513 34,000  Level FlightAware
06:03AM 44.4530 -94.4990 311° West 446 513 34,000  Level FlightAware
06:04AM 44.6060 -94.7250 314° West 441 507 34,000  Level FlightAware
06:05AM 44.6480 -94.7930 311° West 441 507 34,000  Level FlightAware
06:06AM 44.7570 -94.9700 311° West 441 507 34,000  Level FlightAware
06:07AM 44.8090 -95.0540 311° West 441 507 34,000  Level FlightAware
06:08AM 44.8510 -95.1230 311° West 441 507 34,000  Level FlightAware
06:08AM 44.9060 -95.2110 311° West 441 507 34,000  Level FlightAware
06:09AM 44.9470 -95.2780 311° West 441 507 34,000  Level FlightAware
06:10AM 45.0300 -95.4130 311° West 441 507 34,000  Level FlightAware
06:11AM 45.1160 -95.5540 311° West 441 507 34,000  Level FlightAware
06:12AM 45.1570 -95.6210 311° West 441 507 34,000  Level FlightAware
06:13AM 45.2120 -95.7100 311° West 441 507 34,000  Level FlightAware
06:13AM 45.2530 -95.7770 311° West 441 507 34,000  Level FlightAware
06:15AM 45.4714 -96.1453 311° West 432 497 34,000  Level Minneapolis Center
06:16AM 45.5494 -96.2747 311° West 431 496 34,000  Level Minneapolis Center
06:17AM 45.6256 -96.4047 310° West 430 495 34,000  Level Minneapolis Center
06:18AM 45.7022 -96.5339 310° West 429 494 34,000  Level Minneapolis Center
06:19AM 45.7781 -96.6639 310° West 427 491 34,000  Level Minneapolis Center
06:20AM 45.8539 -96.7961 309° West 430 495 34,000  Level Minneapolis Center
06:26AM 46.3190 -97.6090 309° West 428 493 34,000  Level FlightAware
06:27AM 46.3570 -97.6800 308° West 428 493 34,000  Level FlightAware
06:27AM 46.4210 -97.7890 310° West 425 489 34,000  Level FlightAware
06:28AM 46.4790 -97.8940 309° West 423 487 34,000  Level FlightAware
06:29AM 46.5420 -98.0080 309° West 421 484 34,000  Level FlightAware
06:31AM 46.6750 -98.2470 309° West 416 479 34,000  Level FlightAware
06:37AM 47.0950 -99.0200 309° West 396 456 34,000  Level FlightAware
06:38AM 47.1420 -99.1080 308° West 396 456 34,000  Level FlightAware
06:38AM 47.1760 -99.1730 308° West 396 456 34,000  Level FlightAware
06:39AM 47.2340 -99.2820 308° West 396 456 34,000  Level FlightAware
06:42AM 47.4620 -99.7140 308° West 391 450 34,000  Level FlightAware
06:43AM 47.5040 -99.7960 307° West 391 450 34,000  Level FlightAware
06:44AM 47.5400 -99.8670 307° West 391 450 34,000  Level FlightAware
06:44AM 47.5850 -99.9560 307° West 391 450 34,000  Level FlightAware
06:45AM 47.6310 -100.0450 308° West 391 450 34,000  Level FlightAware
06:46AM 47.7440 -100.2600 308° West 390 449 34,000  Level FlightAware
06:47AM 47.7810 -100.3340 307° West 390 449 34,000  Level FlightAware
06:48AM 47.8340 -100.4360 308° West 391 450 34,000  Level FlightAware
06:49AM 47.8800 -100.5260 307° West 391 450 34,000  Level FlightAware
06:49AM 47.9280 -100.6210 307° West 393 452 34,000  Level FlightAware
06:50AM 47.9660 -100.6970 307° West 393 452 34,000  Level FlightAware
06:51AM 48.0110 -100.7880 306° West 393 452 34,000  Level FlightAware
06:51AM 48.0450 -100.8590 306° West 393 452 34,000  Level FlightAware
06:52AM 48.0900 -100.9510 306° West 393 452 34,000  Level FlightAware
06:53AM 48.1230 -101.0200 306° West 393 452 34,000  Level FlightAware
06:54AM 48.1650 -101.1070 306° West 393 452 34,000  Level FlightAware
06:54AM 48.1970 -101.1720 306° West 393 452 34,000  Level FlightAware
06:55AM 48.2630 -101.3090 306° West 393 452 34,000  Level FlightAware
06:56AM 48.3180 -101.4220 306° West 393 452 34,000  Level FlightAware
06:57AM 48.3500 -101.4900 305° West 393 452 34,000  Level FlightAware
06:58AM 48.3950 -101.5820 306° West 393 452 34,000  Level FlightAware
06:58AM 48.4290 -101.6520 306° West 393 452 34,000  Level FlightAware
06:59AM 48.4820 -101.7630 306° West 393 452 34,000  Level FlightAware
07:00AM 48.7014 -101.9125 306° West 389 448 34,000  Level Minneapolis Center
07:01AM 48.7797 -102.0250 317° Northwest 390 449 34,000  Level Minneapolis Center
07:07AM 49.2540 -102.7110 317° Northwest 394 453 34,000  Level FlightAware
07:08AM 49.3100 -102.7950 316° Northwest 396 456 34,000  Level FlightAware
07:08AM 49.3570 -102.8660 315° West 396 456 34,000  Level FlightAware
07:09AM 49.3990 -102.9320 314° West 396 456 34,000  Level FlightAware
07:11AM 49.5220 -103.1110 317° Northwest 397 457 34,000  Level FlightAware
07:12AM 49.6010 -103.2330 315° West 397 457 34,000  Level FlightAware
07:12AM 49.6410 -103.2950 315° West 397 457 34,000  Level FlightAware
07:13AM 49.6910 -103.3730 315° West 397 457 34,000  Level FlightAware
07:14AM 49.7430 -103.4530 315° West 397 457 34,000  Level FlightAware
07:14AM 49.7830 -103.5150 315° West 397 457 34,000  Level FlightAware
07:15AM 49.9050 -103.6920 317° Northwest 403 464 34,000  Level FlightAware
07:16AM 49.9680 -103.7890 315° West 403 464 34,000  Level FlightAware
07:17AM 50.0160 -103.8620 316° Northwest 404 465 34,000  Level FlightAware
07:17AM 50.0740 -103.9530 315° West 405 466 34,000  Level FlightAware
07:18AM 50.1360 -104.0490 315° West 405 466 34,000  Level FlightAware
07:19AM 50.1810 -104.1180 316° Northwest 405 466 34,000  Level FlightAware
07:20AM 50.2550 -104.2350 315° West 405 466 34,000  Level FlightAware
07:21AM 50.3180 -104.3340 315° West 406 467 34,000  Level FlightAware
07:21AM 50.3730 -104.4200 315° West 407 468 34,000  Level FlightAware
07:22AM 50.4270 -104.5060 315° West 406 467 34,000  Level FlightAware
07:23AM 50.4960 -104.6160 315° West 408 470 34,000  Level FlightAware
07:24AM 50.5570 -104.7130 315° West 407 468 34,000  Level FlightAware
07:24AM 50.6190 -104.8130 314° West 408 470 34,000  Level FlightAware
07:25AM 50.6940 -104.9520 310° West 409 471 34,000  Level FlightAware
07:26AM 50.7400 -105.0560 305° West 412 474 34,000  Level FlightAware
07:27AM 50.7960 -105.1870 304° West 412 474 34,000  Level FlightAware
07:27AM 50.8320 -105.2710 304° West 413 475 34,000  Level FlightAware
07:28AM 50.8790 -105.3810 304° West 414 476 34,000  Level FlightAware
07:29AM 50.9220 -105.4800 305° West 412 474 34,000  Level FlightAware
07:29AM 50.9530 -105.5550 303° West 413 475 34,000  Level FlightAware
07:30AM 51.0000 -105.7167 303° West 410 472 34,000  Level Edmonton Center
07:31AM 51.0667 -105.8833 303° West 410 472 34,000  Level Edmonton Center
07:32AM 51.1167 -106.0167 301° West 410 472 34,000  Level Edmonton Center
07:33AM 51.1833 -106.1833 303° West 410 472 34,000  Level Edmonton Center
07:39AM 51.4490 -106.7490 303° West 416 479 34,000  Level FlightAware
07:40AM 51.5010 -106.8750 304° West 417 480 34,000  Level FlightAware
07:41AM 51.5340 -106.9570 303° West 417 480 34,000  Level FlightAware
07:42AM 51.5770 -107.0650 303° West 417 480 34,000  Level FlightAware
07:42AM 51.6100 -107.1470 303° West 417 480 34,000  Level FlightAware
07:43AM 51.6740 -107.3100 302° West 416 479 34,000  Level FlightAware
07:44AM 51.7170 -107.4190 303° West 416 479 34,000  Level FlightAware
07:45AM 51.9333 -108.0667 303° West 410 472 34,000  Level Edmonton Center
07:46AM 52.0000 -108.2333 303° West 410 472 34,000  Level Edmonton Center
07:52AM 52.1410 -108.5220 303° West 416 479 34,000  Level FlightAware
07:53AM 52.4167 -109.3500 303° West 420 483 34,000  Level Edmonton Center
07:59AM 52.7690 -110.2260 303° West 424 488 34,000  Level FlightAware
08:01AM 52.9250 -110.6710 300° West 426 490 34,000  Level FlightAware
08:02AM 52.9640 -110.7830 300° West 427 491 34,000  Level FlightAware
08:03AM 53.0140 -110.9070 304° West 428 493 34,000  Level FlightAware
08:03AM 53.0630 -111.0200 306° West 428 493 34,000  Level FlightAware
08:04AM 53.1070 -111.1210 306° West 429 494 34,000  Level FlightAware
08:05AM 53.1530 -111.2260 306° West 429 494 34,000  Level FlightAware
08:06AM 53.2200 -111.3830 306° West 431 496 34,000  Level FlightAware
08:06AM 53.2720 -111.5050 306° West 430 495 34,000  Level FlightAware
08:07AM 53.3210 -111.6180 306° West 431 496 34,000  Level FlightAware
08:08AM 53.3650 -111.7240 305° West 431 496 34,000  Level FlightAware
08:08AM 53.4080 -111.8230 306° West 431 496 34,000  Level FlightAware
08:09AM 53.4470 -111.9180 305° West 431 496 34,000  Level FlightAware
08:10AM 53.5050 -112.0540 306° West 430 495 34,000  Level FlightAware
08:11AM 53.6020 -112.2880 305° West 431 496 34,000  Level FlightAware
08:12AM 53.6530 -112.4120 305° West 431 496 34,000  Level FlightAware
08:13AM 53.6980 -112.5220 305° West 432 497 34,000  Level FlightAware
08:13AM 53.7440 -112.6350 305° West 433 498 34,000  Level FlightAware
08:14AM 53.7760 -112.7130 305° West 433 498 34,000  Level FlightAware
08:14AM 53.8170 -112.8130 305° West 435 501 34,000  Level FlightAware
08:15AM 53.8667 -113.0167 305° West 430 495 34,000  Level Edmonton Center
08:16AM 53.9333 -113.1667 307° West 430 495 34,000  Level Edmonton Center
08:17AM 54.0000 -113.3500 302° West 430 495 34,000  Level Edmonton Center
08:23AM 54.3740 -114.2260 302° West 442 509 34,000  Level FlightAware
08:24AM 54.4330 -114.3790 304° West 443 510 34,000  Level FlightAware
08:24AM 54.4790 -114.5020 303° West 443 510 34,000  Level FlightAware
08:25AM 54.5200 -114.6100 303° West 444 511 34,000  Level FlightAware
08:27AM 54.6420 -114.9340 303° West 445 512 34,000  Level FlightAware
08:27AM 54.6810 -115.0380 303° West 445 512 34,000  Level FlightAware
08:28AM 54.7360 -115.1880 302° West 446 513 34,000  Level FlightAware
08:29AM 54.7710 -115.2840 302° West 447 514 34,000  Level FlightAware
08:29AM 54.8240 -115.4270 303° West 446 513 34,000  Level FlightAware
08:34AM 55.1340 -116.2910 302° West 449 517 34,000  Level FlightAware
08:35AM 55.2030 -116.4890 301° West 449 517 34,000  Level FlightAware
08:36AM 55.2440 -116.6080 301° West 449 517 34,000  Level FlightAware
08:36AM 55.2770 -116.7030 301° West 449 517 34,000  Level FlightAware
08:37AM 55.3360 -116.8730 301° West 34,000  Level FlightAware
08:38AM 55.3833 -117.1500 301° West 450 518 34,000  Level Edmonton Center
08:39AM 55.4500 -117.3500 301° West 450 518 34,000  Level Edmonton Center
08:40AM 55.5167 -117.5333 303° West 450 518 34,000  Level Edmonton Center
08:41AM 55.5833 -117.7333 301° West 450 518 34,000  Level Edmonton Center
08:42AM 55.6500 -117.9167 303° West 450 518 34,000  Level Edmonton Center
08:43AM 55.7167 -118.1167 301° West 450 518 34,000  Level Edmonton Center
08:44AM 55.7833 -118.2833 305° West 450 518 34,000  Level Edmonton Center
08:45AM 55.8500 -118.5000 299° West 440 506 34,000  Level Edmonton Center
08:46AM 55.8833 -118.7000 287° West 440 506 34,000  Level Edmonton Center
08:47AM 55.9667 -118.8833 309° West 450 518 34,000  Level Edmonton Center
08:48AM 56.0167 -119.0833 294° West 450 518 34,000  Level Edmonton Center
08:49AM 56.0833 -119.2667 303° West 450 518 34,000  Level Edmonton Center
08:50AM 56.1333 -119.4667 294° West 460 529 34,000  Level Edmonton Center
08:51AM 56.2167 -119.6833 305° West 460 529 34,000  Level Edmonton Center
08:52AM 56.2667 -119.9000 293° West 460 529 34,000  Level Edmonton Center
08:53AM 56.3333 -120.0833 303° West 470 541 34,000  Level Edmonton Center
08:54AM 56.4000 -120.3000 299° West 470 541 34,000  Level Edmonton Center
08:55AM 56.4667 -120.5000 301° West 470 541 34,000  Level Edmonton Center
08:56AM 56.5167 -120.7167 293° West 470 541 34,000  Level Edmonton Center
08:57AM 56.5833 -120.9333 299° West 470 541 34,000  Level Edmonton Center
08:58AM 56.6333 -121.1500 293° West 470 541 34,000  Level Edmonton Center
08:59AM 56.7000 -121.3333 304° West 470 541 34,000  Level Edmonton Center
09:00AM 56.7667 -121.5833 296° West 470 541 34,000  Level Edmonton Center
09:01AM 56.8333 -121.7833 301° West 460 529 34,000  Level Edmonton Center
09:02AM 56.8833 -122.0000 293° West 460 529 34,000  Level Edmonton Center
09:03AM 56.9333 -122.2167 293° West 460 529 34,000  Level Edmonton Center
09:04AM 57.0000 -122.4333 300° West 460 529 34,000  Level Edmonton Center
09:05AM 57.0500 -122.6167 297° West 460 529 34,000  Level Edmonton Center
09:06AM 57.1167 -122.8333 300° West 460 529 34,000  Level Edmonton Center
09:07AM 57.1667 -123.0667 292° West 460 529 34,000  Level Edmonton Center
09:08AM 57.2167 -123.2833 293° West 460 529 34,000  Level Edmonton Center
09:09AM 57.2833 -123.5167 298° West 470 541 34,000  Level Edmonton Center
09:10AM 57.3500 -123.7333 300° West 470 541 34,000  Level Edmonton Center
09:11AM 57.4000 -123.9667 292° West 480 552 34,000  Level Edmonton Center
09:12AM 57.4500 -124.1500 297° West 470 541 34,000  Level Edmonton Center
09:13AM 57.5167 -124.4167 295° West 480 552 34,000  Level Edmonton Center
09:14AM 57.5667 -124.6167 295° West 480 552 34,000  Level Edmonton Center
09:15AM 57.6167 -124.8667 291° West 480 552 34,000  Level Edmonton Center
09:16AM 57.6667 -125.0667 295° West 480 552 34,000  Level Edmonton Center
09:18AM 57.7176 -125.2792 294° West  Level FlightAware Approximate
09:25AM 58.0545 -126.7331 294° West  Level FlightAware Approximate
09:26AM 58.1019 -126.9426 293° West  Level FlightAware Approximate
09:27AM 58.1489 -127.1526 293° West  Level FlightAware Approximate
09:28AM 58.1956 -127.3632 293° West  Level FlightAware Approximate
09:29AM 58.2419 -127.5743 293° West  Level FlightAware Approximate
09:30AM 58.2879 -127.7859 293° West  Level FlightAware Approximate
09:31AM 58.3335 -127.9982 292° West  Level FlightAware Approximate
09:32AM 58.3788 -128.2109 292° West  Level FlightAware Approximate
09:33AM 58.4237 -128.4242 292° West  Level FlightAware Approximate
09:34AM 58.4683 -128.6381 292° West  Level FlightAware Approximate
09:35AM 58.5125 -128.8524 292° West  Level FlightAware Approximate
09:36AM 58.5563 -129.0674 291° West  Level FlightAware Approximate
09:37AM 58.5998 -129.2828 291° West  Level FlightAware Approximate
09:38AM 58.6430 -129.4988 291° West  Level FlightAware Approximate
09:39AM 58.6857 -129.7154 291° West  Level FlightAware Approximate
09:40AM 58.7295 -129.9322 291° West  Level FlightAware Approximate
09:41AM 58.7730 -130.1495 291° West  Level FlightAware Approximate
09:42AM 58.8161 -130.3674 291° West  Level FlightAware Approximate
09:43AM 58.8588 -130.5858 291° West  Level FlightAware Approximate
09:44AM 58.9012 -130.8048 291° West  Level FlightAware Approximate
09:45AM 58.9431 -131.0242 290° West  Level FlightAware Approximate
09:46AM 58.9847 -131.2443 290° West  Level FlightAware Approximate
09:47AM 59.0260 -131.4648 290° West  Level FlightAware Approximate
09:48AM 59.0668 -131.6859 290° West  Level FlightAware Approximate
09:49AM 59.1073 -131.9075 290° West  Level FlightAware Approximate
09:50AM 59.1474 -132.1297 289° West  Level FlightAware Approximate
09:51AM 59.1871 -132.3523 289° West  Level FlightAware Approximate
09:52AM 59.2265 -132.5755 289° West  Level FlightAware Approximate
09:53AM 59.2654 -132.7991 289° West  Level FlightAware Approximate
09:54AM 59.3036 -133.0233 287° West  Level FlightAware Approximate
09:54AM 59.5167 -134.4167 287° West 530 610 34,000  Level Anchorage Center
09:55AM 59.3387 -133.2500 287° West  Level FlightAware Approximate
09:55AM 59.5667 -134.6833 290° West 510 587 34,000  Level Anchorage Center
09:56AM 59.3744 -133.4757 287° West  Level FlightAware Approximate
09:56AM 59.6000 -134.9333 285° West 510 587 34,000  Level Anchorage Center
09:57AM 59.4096 -133.7019 287° West  Level FlightAware Approximate
09:57AM 59.6333 -135.2000 284° West 520 598 34,000  Level Anchorage Center
09:58AM 59.4445 -133.9285 287° West  Level FlightAware Approximate
09:58AM 59.6667 -135.4833 283° West 520 598 34,000  Level Anchorage Center
09:59AM 59.4790 -134.1557 287° West  Level FlightAware Approximate
09:59AM 59.7167 -135.7500 290° West 520 598 34,000  Level Anchorage Center
10:00AM 59.7500 -136.0333 283° West 520 598 34,000  Level Anchorage Center
10:01AM 59.7833 -136.3667 281° West 520 598 34,000  Level Anchorage Center
10:02AM 59.8167 -136.6333 284° West 520 598 34,000  Level Anchorage Center
10:03AM 59.8500 -136.9167 283° West 510 587 34,000  Level Anchorage Center
10:04AM 59.9000 -137.1833 291° West 510 587 34,000  Level Anchorage Center
10:05AM 59.9333 -137.4667 283° West 510 587 34,000  Level Anchorage Center
10:06AM 59.9500 -137.7333 277° West 510 587 34,000  Level Anchorage Center
10:07AM 59.9833 -138.0167 283° West 510 587 34,000  Level Anchorage Center
10:08AM 60.0167 -138.2833 284° West 510 587 34,000  Level Anchorage Center
10:09AM 60.0500 -138.5667 283° West 500 575 34,000  Level Anchorage Center
10:10AM 60.0833 -138.8333 284° West 510 587 34,000  Level Anchorage Center
10:11AM 60.1167 -139.1167 283° West 500 575 34,000  Level Anchorage Center
10:12AM 60.1500 -139.3833 284° West 500 575 34,000  Level Anchorage Center
10:13AM 60.1667 -139.6500 277° West 500 575 34,000  Level Anchorage Center
10:14AM 60.2000 -139.9333 283° West 500 575 34,000  Level Anchorage Center
10:15AM 60.2333 -140.2000 284° West 490 564 34,000  Level Anchorage Center
10:16AM 60.2500 -140.4667 277° West 490 564 34,000  Level Anchorage Center
10:17AM 60.2833 -140.7333 284° West 490 564 34,000  Level Anchorage Center
10:18AM 60.3000 -141.0000 277° West 480 552 34,000  Level Anchorage Center
10:19AM 60.3333 -141.2667 284° West 490 564 34,000  Level Anchorage Center
10:20AM 60.3500 -141.5500 277° West 490 564 34,000  Level Anchorage Center
10:21AM 60.3833 -141.8167 284° West 490 564 34,000  Level Anchorage Center
10:22AM 60.4000 -142.1000 277° West 500 575 34,000  Level Anchorage Center
10:23AM 60.4167 -142.3833 277° West 500 575 34,000  Level Anchorage Center
10:24AM 60.4333 -142.6667 277° West 510 587 34,000  Level Anchorage Center
10:25AM 60.4667 -142.9333 284° West 500 575 34,000  Level Anchorage Center
10:26AM 60.4833 -143.2500 276° West 510 587 34,000  Level Anchorage Center
10:27AM 60.5000 -143.5333 277° West 510 587 34,000  Level Anchorage Center
10:28AM 60.5333 -143.8167 284° West 510 587 34,000  Level Anchorage Center
10:29AM 60.5500 -144.1000 277° West 500 575 34,000  Level Anchorage Center
10:30AM 60.5667 -144.3833 277° West 510 587 34,000  Level Anchorage Center
10:31AM 60.5833 -144.6667 277° West 510 587 34,000  Level Anchorage Center
10:32AM 60.6000 -144.9500 277° West 510 587 34,000  Level Anchorage Center
10:33AM 60.6167 -145.2333 277° West 480 552 34,000  Level Anchorage Center
10:34AM 60.6333 -145.5167 277° West 490 564 34,000  Level Anchorage Center
10:40AM 60.7090 -147.1790 277° West 485 558 34,000  Level FlightAware
10:41AM 60.7160 -147.4060 274° West 484 557 34,000 -240 Level FlightAware
10:42AM 60.7210 -147.5860 273° West 476 548 33,700 -1,500 Descending FlightAware
10:42AM 60.7260 -147.7650 273° West 475 547 32,000 -3,240 Descending FlightAware
10:43AM 60.7310 -147.9680 273° West 494 568 29,200 -4,080 Descending FlightAware
10:44AM 60.7380 -148.1650 274° West 510 587 26,200 -3,780 Descending FlightAware
10:45AM 60.7670 -148.4110 284° West 500 575 23,300 -3,300 Descending FlightAware
10:46AM 60.8060 -148.6750 287° West 455 524 20,000 -3,540 Descending FlightAware
10:46AM 60.8280 -148.8250 287° West 437 503 17,500 -4,140 Descending FlightAware
10:47AM 60.8430 -148.9280 287° West 430 495 15,600 -3,000 Descending FlightAware
10:48AM 60.8690 -149.1070 287° West 413 475 13,900 -2,340 Descending FlightAware
10:48AM 60.8970 -149.2720 289° West 405 466 12,100 -2,160 Descending FlightAware
10:49AM 60.9280 -149.4230 293° West 387 445 10,800 -1,140 Descending FlightAware
10:50AM 60.9750 -149.6640 292° West 324 373 9,900 -600 Descending FlightAware
10:51AM 60.9930 -149.7540 292° West 293 337 9,800 -600 Descending FlightAware
10:51AM 61.0070 -149.8240 292° West 275 316 9,300 -1,500 Descending FlightAware
10:52AM 61.0140 -149.8600 292° West 275 316 8,700 -2,460 Descending FlightAware
10:52AM 61.0270 -149.9250 292° West 273 314 7,600 -2,340 Descending FlightAware
10:52AM 61.0400 -149.9890 293° West 269 310 6,600 -1,980 Descending FlightAware
10:53AM 61.0510 -150.0460 292° West 257 296 5,900 -1,440 Descending FlightAware
10:53AM 61.0620 -150.1040 291° West 234 269 5,400 -1,320 Descending FlightAware
10:54AM 61.0740 -150.1660 292° West 229 264 4,700 -1,500 Descending FlightAware
10:54AM 61.0870 -150.2320 292° West 230 265 3,900 -1,200 Descending FlightAware
10:56AM 61.1440 -150.3330 319° Northwest 202 232 2,300 -1,080 Descending FlightAware
10:56AM 61.1530 -150.3020 59° Northeast 203 234 1,900 -660 Descending FlightAware
10:57AM 61.1640 -150.2560 64° Northeast 184 212 1,800 -180 Descending FlightAware
10:57AM 61.1670 -150.2350 73° East 184 212 1,800 -660 Level FlightAware
10:57AM 61.1670 -150.1920 90° East 161 185 1,400 -780 Descending FlightAware
10:58AM 61.1680 -150.1790 81° East 153 176 1,300 -780 Descending FlightAware
10:58AM 61.1670 -150.1260 92° East 144 166 800 -900 Descending FlightAware
10:58AM 61.1680 -150.0940 86° East 145 167 500 -720 Descending FlightAware
10:59AM 61.1680 -150.0670 90° East 142 163 300 -600 Descending FlightAware
11:00AM 61.1680 -150.0070 90° East 63 72 -360 Descending FlightAware
11:01AM 61.1690 -149.9940 81° East 15 17  Level FlightAware
11:01AM 61.1730 -149.9960 346° North 20 23  Level FlightAware
11:02AM 61.1770 -149.9980 346° North 27 31  Level FlightAware
11:03AM 61.1680 -150.0180 227° Southwest 28 32  Level FlightAware
11:03AM 61.1890 -150.0050 17° North 28 32  Level FlightAware
11:04AM 61.1910 -150.0060 346° North 31 36  Level FlightAware
11:04AM 61.1680 -150.0180 194° South 12 14  Level FlightAware
11:04AM 61.1920 -150.0030 17° North 34 39  Level FlightAware
11:05AM 61.1940 -150.0030 360° North 2 2  Level FlightAware
11:08AM 61.1741 -149.9982 65° Northeast  Level Estimated
11:09AM 61.1741 -149.9982 65° Northeast  Level Estimated
11:10AM 61.1741 -149.9982 65° Northeast  Level Estimated
11:11AM 61.1741 -149.9982 65° Northeast  Level Estimated
11:12AM 61.1741 -149.9982 65° Northeast  Level Estimated
11:13AM 61.1741 -149.9982 65° Northeast  Level Estimated
11:14AM 61.1741 -149.9982 65° Northeast  Level Estimated